Alianca Sky — A8UK6 — position and weather

sailwx.info

Track history (hours):
 
Tides and Currents Weather Stations Pressure Air Temp Water Temp Dewpoint Dewpoint Depression Visibility Wind Speed Wind Dir Waves Ship Positions

Alianca Sky

Last reported at 2015-Aug-02 13:14 UTC. Time now 2015-Sep-05 03:44 UTC.
Position N 03°10' E 100°39'.
Warning: this ship's position is 33 days out of date.

Length 186 m; draft 11.5 m.

Type: Cargo ship. MMSI: 636014513.

Date/timePositionNaut miles runAvg speedWind from/ knotsBaromVisibWave heightAir tempDewpointWater temp
2015-Aug-02 13:14N 03°10' E 100°39'2011.9
2015-Aug-02 11:33N 02°56' E 100°54'1010.5
2015-Aug-02 10:33N 02°49' E 101°01'2311.4
2015-Aug-02 08:33N 02°39' E 101°22'3113.9
2015-Aug-02 06:19N 02°21' E 101°47'13212.2
2015-Aug-01 19:33N 01°11' E 103°39'8 8.3
2015-Aug-01 18:33N 01°10' E 103°47'9 9.0
2015-Aug-01 17:33N 01°14' E 103°55'4 3.8
2015-Aug-01 16:33N 01°17' E 103°57'0 0.2
2015-Aug-01 15:33N 01°17' E 103°57'0 0.1
2015-Aug-01 14:33N 01°17' E 103°57'0 0.1
2015-Aug-01 13:33N 01°17' E 103°56'0 0.0
2015-Aug-01 12:33N 01°17' E 103°56'0 0.0
2015-Aug-01 11:33N 01°17' E 103°56'0 0.0
2015-Aug-01 10:33N 01°17' E 103°56'0 0.0
2015-Aug-01 09:33N 01°17' E 103°56'0 0.0
2015-Aug-01 08:33N 01°17' E 103°56'0 0.0
2015-Aug-01 07:33N 01°17' E 103°56'0 0.1
2015-Aug-01 06:33N 01°17' E 103°57'0 0.1
2015-Aug-01 05:33N 01°17' E 103°56'0 0.0
2015-Aug-01 04:33N 01°17' E 103°56'0 0.1
2015-Aug-01 03:33N 01°17' E 103°56'2 1.9
2015-Aug-01 02:31N 01°16' E 103°58'4 4.6
2015-Aug-01 01:33N 01°17' E 104°02'5 4.9
2015-Aug-01 00:33N 01°17' E 104°07'  
2015-Jul-24 01:19N 32°38' E 123°20'1012.7
2015-Jul-24 00:32N 32°48' E 123°20'  
Track history (hours):
 
Tides and Currents Weather Stations Pressure Air Temp Water Temp Dewpoint Dewpoint Depression Visibility Wind Speed Wind Dir Waves Ship Positions

Alianca Sky

Last reported at 2015-Aug-02 13:14 UTC. Time now 2015-Sep-05 03:44 UTC.
Position N 03°10' E 100°39'.
Warning: this ship's position is 33 days out of date.

Length 186 m; draft 11.5 m.

Type: Cargo ship. MMSI: 636014513.

Date/timePositionNaut miles runAvg speedWind from/ knotsBaromVisibWave heightAir tempDewpointWater temp
2015-Aug-02 13:14N 03°10' E 100°39'2011.9
2015-Aug-02 11:33N 02°56' E 100°54'1010.5
2015-Aug-02 10:33N 02°49' E 101°01'2311.4
2015-Aug-02 08:33N 02°39' E 101°22'3113.9
2015-Aug-02 06:19N 02°21' E 101°47'13212.2
2015-Aug-01 19:33N 01°11' E 103°39'8 8.3
2015-Aug-01 18:33N 01°10' E 103°47'9 9.0
2015-Aug-01 17:33N 01°14' E 103°55'4 3.8
2015-Aug-01 16:33N 01°17' E 103°57'0 0.2
2015-Aug-01 15:33N 01°17' E 103°57'0 0.1
2015-Aug-01 14:33N 01°17' E 103°57'0 0.1
2015-Aug-01 13:33N 01°17' E 103°56'0 0.0
2015-Aug-01 12:33N 01°17' E 103°56'0 0.0
2015-Aug-01 11:33N 01°17' E 103°56'0 0.0
2015-Aug-01 10:33N 01°17' E 103°56'0 0.0
2015-Aug-01 09:33N 01°17' E 103°56'0 0.0
2015-Aug-01 08:33N 01°17' E 103°56'0 0.0
2015-Aug-01 07:33N 01°17' E 103°56'0 0.1
2015-Aug-01 06:33N 01°17' E 103°57'0 0.1
2015-Aug-01 05:33N 01°17' E 103°56'0 0.0
2015-Aug-01 04:33N 01°17' E 103°56'0 0.1
2015-Aug-01 03:33N 01°17' E 103°56'2 1.9
2015-Aug-01 02:31N 01°16' E 103°58'4 4.6
2015-Aug-01 01:33N 01°17' E 104°02'5 4.9
2015-Aug-01 00:33N 01°17' E 104°07'  
2015-Jul-24 01:19N 32°38' E 123°20'1012.7
2015-Jul-24 00:32N 32°48' E 123°20'  

Dump ship's entire track history